EDT,Max TemperatureF,Mean TemperatureF,Min TemperatureF,Max Dew PointF,MeanDew PointF,Min DewpointF,Max Humidity, Mean Humidity, Min Humidity, Max Sea Level PressureIn, Mean Sea Level PressureIn, Min Sea Level PressureIn, Max VisibilityMiles, Mean VisibilityMiles, Min VisibilityMiles, Max Wind SpeedMPH, Mean Wind SpeedMPH, Max Gust SpeedMPH,PrecipitationIn, CloudCover, Events, WindDirDegrees
2012-10-1,65,51,36,49,42,34,93,69,44,29.96,29.91,29.85,10,10,10,8,1,12,0.00,5,,250
2012-10-2,65,54,43,53,47,42,100,78,56,29.96,29.91,29.87,10,10,7,10,2,13,0.00,3,,40
2012-10-3,64,52,40,58,51,40,96,84,72,30.01,29.98,29.96,10,8,2,6,1,7,0.12,6,Rain,125
2012-10-4,74,64,54,57,55,40,93,71,49,29.99,29.94,29.85,10,7,2,21,6,26,0.38,7,Rain,221
2012-10-5,55,51,46,40,34,29,66,54,42,29.99,29.95,29.90,10,10,10,23,13,29,0.00,6,,261
2012-10-6,49,44,39,40,35,28,85,67,49,30.13,29.99,29.88,10,9,6,24,11,31,0.21,7,Rain,298
2012-10-7,46,42,37,37,34,27,92,73,53,30.13,30.10,30.06,10,10,6,13,4,17,0.04,7,Rain,200
2012-10-8,57,46,34,32,28,25,70,53,35,30.08,30.02,29.92,10,10,10,16,8,26,0.00,5,,193
2012-10-9,61,52,42,48,40,30,89,67,44,29.91,29.79,29.70,10,9,3,22,9,31,0.32,6,Rain,221
2012-10-10,46,41,35,39,34,25,93,71,49,30.10,29.90,29.76,10,10,6,25,8,30,0.02,8,Rain,255
2012-10-11,48,42,35,42,34,27,86,68,49,30.19,30.03,29.90,10,9,6,22,8,29,0.20,7,Rain,257
2012-10-12,50,43,35,33,29,25,82,61,39,30.46,30.37,30.22,10,10,10,15,5,21,0.00,4,,219
2012-10-13,56,46,36,52,41,26,93,74,55,30.32,29.97,29.76,10,6,2,12,4,18,0.86,7,Rain,187
2012-10-14,64,56,47,61,53,44,100,93,86,29.77,29.54,29.30,10,4,0,25,7,37,1.68,8,Fog-Rain,337
2012-10-15,48,43,37,44,40,34,86,76,65,29.94,29.74,29.51,10,10,6,23,10,31,0.15,8,Rain,309
2012-10-16,59,46,32,42,37,30,96,74,51,29.94,29.82,29.62,10,10,10,12,3,18,T,4,Rain,175
2012-10-17,75,63,51,54,48,42,77,59,41,29.60,29.48,29.40,10,10,10,15,6,25,0.03,5,Rain,173
2012-10-18,62,54,45,54,48,40,93,81,68,29.57,29.35,29.23,10,9,4,18,8,31,0.19,7,Rain,162
2012-10-19,53,47,40,45,41,38,92,78,63,29.59,29.56,29.53,10,10,10,13,4,17,0.01,6,Rain,117
2012-10-20,58,48,38,46,42,37,100,79,57,29.86,29.69,29.58,10,9,5,10,2,13,0.00,5,,278
2012-10-21,62,50,38,46,41,37,100,73,46,30.04,29.99,29.89,10,8,2,14,3,17,0.00,2,,235
2012-10-22,63,52,41,54,47,40,96,78,60,30.04,29.99,29.94,10,8,2,8,2,10,0.02,5,Rain,23
2012-10-23,62,59,55,54,53,51,93,86,78,29.99,29.95,29.93,10,8,3,13,6,17,0.00,8,,93
2012-10-24,71,63,55,61,56,52,93,83,73,29.97,29.92,29.83,10,10,8,10,5,15,0.00,7,,147
2012-10-25,80,64,47,61,57,45,93,71,48,29.83,29.71,29.59,10,8,2,28,11,44,0.52,6,Rain-Thunderstorm,224
2012-10-26,48,43,37,45,34,29,92,69,46,30.30,30.13,29.81,10,10,5,18,8,24,T,7,Rain,286
2012-10-27,46,41,35,35,30,27,85,67,49,30.31,30.29,30.27,10,10,10,14,3,21,T,7,,343
2012-10-28,48,42,36,34,29,25,75,60,45,30.35,30.31,30.29,10,10,8,16,10,25,T,7,Rain,38
2012-10-29,46,43,39,31,27,24,62,54,45,30.29,30.22,30.04,10,10,10,30,16,44,0.00,4,,15
2012-10-30,42,40,38,37,34,27,92,73,53,30.01,29.78,29.70,10,8,3,29,19,44,0.24,8,Rain,1
2012-10-31,42,40,38,38,36,35,92,86,79,29.73,29.69,29.65,10,6,2,21,14,29,0.19,8,Rain-Snow,344